EGTF weather

Fairoaks Airport
Woking, England, United Kingdom

Public forecast

Using degrees Celsius for public forecast. Weather courtesy of forecast.io.

Closest aviation weather report (METAR) to Fairoaks Airport

Closest report is London Heathrow Airport, 8.2 nm (15.2 km) NNE. Retrieved 2019/10/13 23:20 UTC (15 minutes ago):

EGLL 132320Z AUTO 17003KT 9999 NCD 10/09 Q1011 NOSIG

Closest aviation forecast (TAF) to Fairoaks Airport

Closest forecast is London Heathrow Airport, 8.2 nm (15.2 km) NNE. Retrieved 2019/10/13 18:00 UTC (6 hours ago):

TAF EGLL 131700Z 1318/1424 24010KT 9999 SCT025 BECMG 1400/1403 14008KT PROB30 1400/1405 8000 BECMG 1406/1409 08012KT TEMPO 1406/1418 6000 RA BKN010 PROB40 TEMPO 1409/1415 BKN008 BECMG 1414/1417 17010KT PROB40 TEMPO 1415/1420 4000 +SHRA BKN005 PROB30 TEMPO 1417/1420 15015G25KT BECMG 1419/1422 24010KT PROB40 TEMPO 1420/1424 BKN008